createdAt,value
2022-10-03T00:00:40.735Z,3.2
2022-10-03T00:02:42.797Z,3
2022-10-03T00:04:44.781Z,4.2
2022-10-03T00:06:50.030Z,4.3
2022-10-03T00:08:52.124Z,3.2
2022-10-03T00:10:54.127Z,3.6
2022-10-03T00:12:56.164Z,2.8
2022-10-03T00:14:58.207Z,3.8
2022-10-03T00:17:00.237Z,3.7
2022-10-03T00:19:02.262Z,3
2022-10-03T00:21:07.526Z,3.9
2022-10-03T00:23:09.545Z,3.4
2022-10-03T00:25:11.566Z,3.6
2022-10-03T00:26:14.185Z,3.7
2022-10-03T00:30:18.237Z,4.1
2022-10-03T00:32:20.239Z,4.5
2022-10-03T00:34:25.513Z,3.4
2022-10-03T00:36:27.453Z,3.5
2022-10-03T00:38:29.422Z,4.2
2022-10-03T00:40:31.426Z,3.7
2022-10-03T00:42:33.462Z,3.4
2022-10-03T00:44:35.519Z,3.1
2022-10-03T00:46:37.572Z,4
2022-10-03T00:48:42.769Z,4.1
2022-10-03T00:52:46.811Z,3.5
2022-10-03T00:54:48.818Z,2.9
2022-10-03T00:56:50.883Z,5.4
2022-10-03T00:58:52.896Z,3.5
2022-10-03T01:00:55.000Z,5
2022-10-03T01:05:02.187Z,5
2022-10-03T01:07:04.219Z,3.5
2022-10-03T01:09:06.250Z,3.5
2022-10-03T01:11:08.270Z,4
2022-10-03T01:13:10.277Z,3.1
2022-10-03T01:15:12.291Z,4.2
2022-10-03T01:17:17.563Z,3.6
2022-10-03T01:19:19.574Z,3
2022-10-03T01:21:21.494Z,3.4
2022-10-03T01:22:24.130Z,3.1
2022-10-03T01:24:26.158Z,2.5
2022-10-03T01:26:28.180Z,3
2022-10-03T01:28:30.233Z,5.4
2022-10-03T01:32:37.508Z,3.1
2022-10-03T01:34:39.507Z,4.2
2022-10-03T01:36:41.517Z,3.7
2022-10-03T01:38:43.539Z,4.3
2022-10-03T01:40:45.557Z,4.2
2022-10-03T01:42:47.590Z,3.2
2022-10-03T01:44:52.827Z,3.2
2022-10-03T01:46:54.941Z,4.8
2022-10-03T01:48:56.863Z,3.3
2022-10-03T01:50:58.896Z,2.9
2022-10-03T01:55:02.919Z,3.8
2022-10-03T01:59:10.191Z,3.4
2022-10-03T02:01:12.330Z,3.5
2022-10-03T02:03:14.252Z,3.4
2022-10-03T02:05:16.308Z,3.7
2022-10-03T02:07:18.296Z,4.6
2022-10-03T02:09:20.311Z,3.6
2022-10-03T02:11:22.333Z,4.3
2022-10-03T02:13:27.557Z,3.2
2022-10-03T02:15:29.621Z,3.2
2022-10-03T02:17:31.615Z,3.5
2022-10-03T02:18:34.235Z,3.9
2022-10-03T02:20:36.267Z,4
2022-10-03T02:22:38.298Z,3.3
2022-10-03T02:24:40.306Z,2.9
2022-10-03T02:26:45.555Z,3.6
2022-10-03T02:28:47.575Z,4.8
2022-10-03T02:30:49.581Z,3.3
2022-10-03T02:32:51.597Z,4.5
2022-10-03T02:34:53.641Z,3.8
2022-10-03T02:36:55.660Z,3.3
2022-10-03T02:38:57.649Z,3.6
2022-10-03T02:41:02.935Z,4.1
2022-10-03T02:43:04.945Z,3.5
2022-10-03T02:45:06.961Z,3.2
2022-10-03T02:47:08.999Z,3.9
2022-10-03T02:49:11.017Z,3.4
2022-10-03T02:51:13.034Z,3.8
2022-10-03T02:53:15.047Z,3.7
2022-10-03T02:55:20.341Z,4.1
2022-10-03T02:57:22.355Z,3.3
2022-10-03T02:59:24.386Z,3.5
2022-10-03T03:11:40.099Z,4.1
2022-10-03T03:13:41.798Z,3.1
2022-10-03T03:16:10.685Z,3.6
2022-10-03T03:18:12.658Z,4.2
2022-10-03T03:20:14.685Z,3.5
2022-10-03T03:22:19.929Z,4.2
2022-10-03T03:24:21.965Z,3.6
2022-10-03T03:26:23.962Z,4.1
2022-10-03T03:28:26.084Z,3.4
2022-10-03T03:32:30.011Z,3.4
2022-10-03T03:34:32.048Z,4.3
2022-10-03T03:38:39.324Z,6.1
2022-10-03T03:42:43.343Z,3.9
2022-10-03T03:48:49.410Z,4
2022-10-03T03:52:56.659Z,3.3
2022-10-03T03:54:58.708Z,5.1
2022-10-03T03:57:00.708Z,3.5
2022-10-03T03:59:02.721Z,4.4
2022-10-03T04:01:04.783Z,3.3
2022-10-03T04:05:11.985Z,3.7
2022-10-03T04:07:17.217Z,4
2022-10-03T04:09:16.037Z,3.7
2022-10-03T04:10:18.653Z,3.6
2022-10-03T04:12:20.658Z,3.3
2022-10-03T04:14:22.692Z,4.8
2022-10-03T04:16:24.832Z,3.4
2022-10-03T04:18:29.994Z,3.7
2022-10-03T04:20:31.997Z,3.4
2022-10-03T04:22:33.992Z,3.2
2022-10-03T04:24:36.026Z,3.3
2022-10-03T04:26:38.072Z,3.5
2022-10-03T04:28:40.093Z,3.8
2022-10-03T04:30:42.091Z,3.6
2022-10-03T04:32:47.316Z,3.8
2022-10-03T04:34:49.355Z,4
2022-10-03T04:36:51.345Z,4.5
2022-10-03T04:38:53.358Z,6.1
2022-10-03T04:40:55.372Z,3.5
2022-10-03T04:42:58.961Z,3.3
2022-10-03T04:45:00.943Z,3.7
2022-10-03T04:47:06.219Z,3
2022-10-03T04:49:08.220Z,3.6
2022-10-03T04:51:10.269Z,3.2
2022-10-03T04:53:12.253Z,4.4
2022-10-03T04:55:14.241Z,3.4
2022-10-03T04:57:16.275Z,3.5
2022-10-03T04:59:18.289Z,3.3
2022-10-03T05:01:23.640Z,3.8
2022-10-03T05:03:25.515Z,3.1
2022-10-03T05:05:27.549Z,4
2022-10-03T05:06:30.183Z,4.6
2022-10-03T05:08:32.196Z,3.1
2022-10-03T05:10:34.217Z,3.9
2022-10-03T05:12:36.216Z,3.5
2022-10-03T05:14:41.480Z,4.3
2022-10-03T05:16:43.511Z,3.9
2022-10-03T05:18:45.476Z,3.6
2022-10-03T05:20:47.498Z,3.6
2022-10-03T05:26:53.564Z,3.8
2022-10-03T05:28:58.816Z,4
2022-10-03T05:35:04.721Z,3.2
2022-10-03T05:37:06.731Z,3.5
2022-10-03T05:39:08.728Z,4
2022-10-03T05:41:10.745Z,3.3
2022-10-03T05:43:15.993Z,3.9
2022-10-03T05:45:18.042Z,4.6
2022-10-03T05:47:20.053Z,3.8
2022-10-03T05:49:22.062Z,3.4
2022-10-03T05:51:24.082Z,4.7
2022-10-03T05:55:28.122Z,3.4
2022-10-03T05:57:33.333Z,3.6
2022-10-03T05:59:35.329Z,3.8
2022-10-03T06:01:37.557Z,4.2
2022-10-03T06:04:41.966Z,3.9
2022-10-03T06:06:43.964Z,3.7
2022-10-03T06:08:45.989Z,4
2022-10-03T06:10:51.241Z,3.2
2022-10-03T06:12:53.229Z,3.4
2022-10-03T06:14:55.242Z,3.2
2022-10-03T06:16:57.259Z,3.9
2022-10-03T06:18:59.248Z,4.6
2022-10-03T06:29:12.564Z,3.8
2022-10-03T06:31:14.680Z,3.1
2022-10-03T06:33:16.588Z,3.3
2022-10-03T06:35:18.613Z,3.5
2022-10-03T06:37:20.638Z,3.4
2022-10-03T06:39:25.862Z,3.2
2022-10-03T06:41:27.866Z,2.8
2022-10-03T06:43:29.785Z,2
2022-10-03T06:45:31.831Z,2.8
2022-10-03T06:47:33.837Z,2.4
2022-10-03T06:49:35.756Z,2.3
2022-10-03T06:51:37.691Z,1.8
2022-10-03T06:53:42.756Z,2.6
2022-10-03T06:55:44.652Z,2.7
2022-10-03T06:57:46.554Z,2.1
2022-10-03T07:00:15.175Z,3
2022-10-03T07:02:17.163Z,2.4
2022-10-03T07:04:19.040Z,3.2
2022-10-03T07:06:24.084Z,3.1
2022-10-03T07:08:26.002Z,2.2
2022-10-03T07:10:27.905Z,3.8
2022-10-03T07:12:29.820Z,2.5
2022-10-03T07:14:31.727Z,3.2
2022-10-03T07:16:33.762Z,2.9
2022-10-03T07:18:35.588Z,3.2
2022-10-03T07:20:40.736Z,4.3
2022-10-03T07:22:42.643Z,3.2
2022-10-03T07:26:46.714Z,3.1
2022-10-03T07:28:48.624Z,2.9
2022-10-03T07:30:50.609Z,2.4
2022-10-03T07:32:52.486Z,2.9
2022-10-03T07:34:57.538Z,3.9
2022-10-03T07:36:59.540Z,2.9
2022-10-03T07:39:01.472Z,3
2022-10-03T07:43:05.404Z,3.7
2022-10-03T07:49:18.427Z,4.3
2022-10-03T07:51:16.345Z,3
2022-10-03T07:53:18.277Z,4
2022-10-03T07:54:20.792Z,3.4
2022-10-03T07:56:22.733Z,3.3
2022-10-03T07:58:24.658Z,3.2
2022-10-03T08:00:26.590Z,3.1
2022-10-03T08:02:31.674Z,2.5
2022-10-03T08:04:33.548Z,3.1
2022-10-03T08:06:35.444Z,2.9
2022-10-03T08:10:40.787Z,2.8
2022-10-03T08:12:41.187Z,2.5
2022-10-03T08:14:43.130Z,2.7
2022-10-03T08:16:48.187Z,2.4
2022-10-03T08:18:50.120Z,2.4
2022-10-03T08:20:52.028Z,2.2
2022-10-03T08:22:53.923Z,2.1
2022-10-03T08:24:59.377Z,2.7
2022-10-03T08:26:57.752Z,4.3
2022-10-03T08:28:59.655Z,2.3
2022-10-03T08:31:04.821Z,2.2
2022-10-03T08:33:06.662Z,2.1
2022-10-03T08:35:08.572Z,2.4
2022-10-03T08:37:10.475Z,1.3
2022-10-03T08:39:12.400Z,1.5
2022-10-03T08:41:14.330Z,2.5
2022-10-03T08:43:16.227Z,1.5
2022-10-03T08:45:21.269Z,1.8
2022-10-03T08:47:23.178Z,1.1
2022-10-03T08:49:25.098Z,2.2
2022-10-03T08:50:27.613Z,1.7
2022-10-03T08:52:29.551Z,1
2022-10-03T08:54:31.439Z,1.5
2022-10-03T08:56:33.370Z,1.9
2022-10-03T08:58:38.418Z,1.6
2022-10-03T09:02:42.308Z,1.9
2022-10-03T09:04:44.118Z,1.7
2022-10-03T09:07:12.259Z,1.6
2022-10-03T09:08:47.939Z,0.8
2022-10-03T09:10:49.821Z,1
2022-10-03T09:12:54.887Z,1.7
2022-10-03T09:14:56.799Z,1.4
2022-10-03T09:16:58.686Z,1.1
2022-10-03T09:19:00.614Z,1.6
2022-10-03T09:21:02.467Z,1.3
2022-10-03T09:23:04.385Z,1.3
2022-10-03T09:25:06.284Z,6.3
2022-10-03T09:27:11.325Z,1.3
2022-10-03T09:29:13.228Z,1.4
2022-10-03T09:31:15.180Z,1.7
2022-10-03T09:35:18.907Z,1.9
2022-10-03T09:39:22.679Z,1.3
2022-10-03T09:41:27.718Z,1.3
2022-10-03T09:43:29.608Z,1.3
2022-10-03T09:45:31.500Z,1.1
2022-10-03T09:46:34.059Z,1.1
2022-10-03T09:48:35.892Z,0.8
2022-10-03T09:50:37.776Z,4.7
2022-10-03T09:52:39.668Z,0.7
2022-10-03T09:54:44.704Z,1.4
2022-10-03T09:56:46.597Z,1.5
2022-10-03T09:58:48.470Z,1.9
2022-10-03T10:11:02.943Z,1.5
2022-10-03T10:13:04.835Z,0.6
2022-10-03T10:17:08.607Z,1.4
2022-10-03T10:19:10.501Z,0.7
2022-10-03T10:21:12.349Z,1.1
2022-10-03T10:23:17.405Z,4.7
2022-10-03T10:25:19.291Z,1
2022-10-03T10:27:21.166Z,1.6
2022-10-03T10:29:23.037Z,0.8
2022-10-03T10:31:25.003Z,0.6
2022-10-03T10:33:26.783Z,8.1
2022-10-03T10:35:30.212Z,2.5
2022-10-03T10:37:35.216Z,2.7
2022-10-03T10:39:37.076Z,1.7
2022-10-03T10:41:39.145Z,0.4
2022-10-03T10:44:07.430Z,0.6
2022-10-03T10:46:09.294Z,1
2022-10-03T10:48:11.164Z,14.2
2022-10-03T10:50:16.211Z,1.8
2022-10-03T10:52:18.089Z,2.5
2022-10-03T10:54:19.953Z,1.3
2022-10-03T10:56:21.833Z,1
2022-10-03T10:58:23.689Z,0.6
2022-10-03T11:00:25.625Z,1.3
2022-10-03T11:02:27.478Z,1.4
2022-10-03T11:04:32.556Z,1.6
2022-10-03T11:06:34.355Z,0.9
2022-10-03T11:08:36.212Z,1.2
2022-10-03T11:10:38.096Z,1.1
2022-10-03T11:12:39.971Z,0.9
2022-10-03T11:14:41.843Z,0.6
2022-10-03T11:16:44.171Z,0.9
2022-10-03T11:18:48.768Z,0.9
2022-10-03T11:22:52.525Z,0.9
2022-10-03T11:24:54.386Z,0.7
2022-10-03T11:26:56.256Z,0.9
2022-10-03T11:28:58.134Z,1.1
2022-10-03T11:31:00.028Z,1
2022-10-03T11:33:04.997Z,0.9
2022-10-03T11:35:06.891Z,1.5
2022-10-03T11:40:13.288Z,1.1
2022-10-03T11:42:15.015Z,0.9
2022-10-03T11:44:16.901Z,1
2022-10-03T11:46:21.975Z,1.5
2022-10-03T11:48:23.775Z,1.2
2022-10-03T11:50:25.656Z,2.5
2022-10-03T11:52:27.513Z,1.3
2022-10-03T11:54:31.850Z,1.4
2022-10-03T11:58:33.121Z,0.8
2022-10-03T12:00:38.163Z,0.9
2022-10-03T12:02:40.238Z,1.1
2022-10-03T12:06:43.765Z,0.7
2022-10-03T12:12:49.378Z,1.3
2022-10-03T12:14:54.395Z,0.9
2022-10-03T12:16:56.303Z,1.5
2022-10-03T12:18:58.149Z,1.3
2022-10-03T12:21:00.011Z,0.7
2022-10-03T12:23:01.873Z,1.4
2022-10-03T12:25:03.725Z,1.1
2022-10-03T12:27:05.621Z,1.1
2022-10-03T12:29:10.653Z,1.1
2022-10-03T12:31:14.896Z,0.9
2022-10-03T12:33:14.393Z,1.2
2022-10-03T12:40:22.523Z,1.7
2022-10-03T12:50:35.029Z,0.5
2022-10-03T12:52:36.895Z,2.1
2022-10-03T12:54:38.774Z,1.3
2022-10-03T12:56:43.809Z,1
2022-10-03T12:58:45.684Z,1.2
2022-10-03T13:00:47.624Z,1.2
2022-10-03T13:02:49.466Z,1
2022-10-03T13:04:51.276Z,1.1
2022-10-03T13:07:03.856Z,0.6
2022-10-03T13:08:55.018Z,0.7
2022-10-03T13:11:00.050Z,1
2022-10-03T13:13:01.914Z,1
2022-10-03T13:15:03.779Z,1.1
2022-10-03T13:17:05.659Z,1
2022-10-03T13:19:07.519Z,1.1
2022-10-03T13:21:26.702Z,0.9
2022-10-03T13:23:11.266Z,1.2
2022-10-03T13:25:16.420Z,1.4
2022-10-03T13:27:18.179Z,0.9
2022-10-03T13:29:20.040Z,0.9
2022-10-03T13:30:22.535Z,1.7
2022-10-03T13:32:24.403Z,1.5
2022-10-03T13:38:33.234Z,1.2
2022-10-03T13:40:35.094Z,1
2022-10-03T13:42:36.972Z,1.2
2022-10-03T13:44:38.837Z,1.4
2022-10-03T13:46:40.714Z,1.9
2022-10-03T13:48:42.583Z,5.3
2022-10-03T13:50:44.429Z,0.7
2022-10-03T13:52:49.466Z,1.6
2022-10-03T13:54:51.341Z,0.6
2022-10-03T13:56:53.182Z,1.5
2022-10-03T13:58:55.065Z,0.9
2022-10-03T14:00:56.929Z,1.1
2022-10-03T14:02:58.910Z,1.3
2022-10-03T14:05:00.692Z,2.2
2022-10-03T14:07:05.723Z,0.8
2022-10-03T14:09:07.594Z,1.6
2022-10-03T14:11:09.456Z,1.7
2022-10-03T14:13:11.308Z,1.3
2022-10-03T14:15:13.210Z,1.5
2022-10-03T14:17:15.061Z,1.3
2022-10-03T14:19:16.927Z,1.1
2022-10-03T14:23:23.800Z,1.2
2022-10-03T14:25:25.680Z,1.4
2022-10-03T14:27:54.150Z,1.3
2022-10-03T14:29:55.947Z,1.4
2022-10-03T14:31:57.878Z,1.2
2022-10-03T14:34:02.852Z,1.1
2022-10-03T14:36:04.726Z,1.3
2022-10-03T14:38:06.582Z,1
2022-10-03T14:40:08.450Z,0.8
2022-10-03T14:42:10.326Z,1.2
2022-10-03T14:44:13.553Z,1.3
2022-10-03T14:46:14.222Z,1.5
2022-10-03T14:48:19.125Z,1.6
2022-10-03T14:50:20.989Z,1.4
2022-10-03T14:52:22.908Z,1.2
2022-10-03T14:54:24.759Z,1.2
2022-10-03T14:56:26.736Z,1.7
2022-10-03T14:58:28.500Z,1.9
2022-10-03T15:00:30.380Z,2.9
2022-10-03T15:02:35.519Z,4.7
2022-10-03T15:04:37.291Z,1.5
2022-10-03T15:06:39.185Z,1.1
2022-10-03T15:08:41.024Z,1.7
2022-10-03T15:12:44.785Z,1.3
2022-10-03T15:14:46.664Z,1.4
2022-10-03T15:16:51.661Z,1.6
2022-10-03T15:18:53.543Z,1.2
2022-10-03T15:20:55.407Z,1.5
2022-10-03T15:21:57.931Z,1.3
2022-10-03T15:23:59.784Z,2.3
2022-10-03T15:26:01.648Z,3
2022-10-03T15:28:03.587Z,1.8
2022-10-03T15:30:08.567Z,11.9
2022-10-03T15:32:10.430Z,3.3
2022-10-03T15:34:12.297Z,2.3
2022-10-03T15:36:14.191Z,1.4
2022-10-03T15:38:16.063Z,1.4
2022-10-03T15:40:18.207Z,1.4
2022-10-03T15:42:20.080Z,1.4
2022-10-03T15:44:25.107Z,1.8
2022-10-03T15:46:27.116Z,1.7
2022-10-03T15:48:28.873Z,1.6
2022-10-03T15:50:30.773Z,1.8
2022-10-03T15:52:32.634Z,1.9
2022-10-03T15:56:36.405Z,1.8
2022-10-03T16:00:43.364Z,1.8
2022-10-03T16:02:45.205Z,1.6
2022-10-03T16:04:47.074Z,1.5
2022-10-03T16:06:48.967Z,3.2
2022-10-03T16:08:50.870Z,1.9
2022-10-03T16:12:57.765Z,2.1
2022-10-03T16:14:59.672Z,2.4
2022-10-03T16:17:01.557Z,2.4
2022-10-03T16:18:04.081Z,1.9
2022-10-03T16:20:05.951Z,2.8
2022-10-03T16:22:07.842Z,1.9
2022-10-03T16:24:09.751Z,2.9
2022-10-03T16:26:16.329Z,1.9
2022-10-03T16:28:18.317Z,2.7
2022-10-03T16:30:20.107Z,3.1
2022-10-03T16:32:21.987Z,1.7
2022-10-03T16:36:25.770Z,2.2
2022-10-03T16:38:27.642Z,2.2
2022-10-03T16:42:34.597Z,2.6
2022-10-03T16:44:36.506Z,2.9
2022-10-03T16:46:38.394Z,2.3
2022-10-03T16:48:40.289Z,2.4
2022-10-03T16:50:42.176Z,2.4
2022-10-03T16:52:44.066Z,2.1
2022-10-03T16:54:49.105Z,2.6
2022-10-03T16:56:50.990Z,1.7
2022-10-03T16:58:52.880Z,2.6
2022-10-03T17:02:56.757Z,2.4
2022-10-03T17:04:58.571Z,2.4
2022-10-03T17:07:00.478Z,1.8
2022-10-03T17:09:05.500Z,1.7
2022-10-03T17:13:09.303Z,2
2022-10-03T17:14:11.825Z,1.5
2022-10-03T17:16:13.784Z,2
2022-10-03T17:18:15.611Z,1.9
2022-10-03T17:20:17.520Z,1.9
2022-10-03T17:22:22.549Z,1.8
2022-10-03T17:24:24.447Z,2.1
2022-10-03T17:26:26.357Z,2.8
2022-10-03T17:28:28.325Z,2.3
2022-10-03T17:30:30.150Z,2.1
2022-10-03T17:32:32.037Z,3
2022-10-03T17:34:33.943Z,1.9
2022-10-03T17:36:38.982Z,2.7
2022-10-03T17:44:47.739Z,2.5
2022-10-03T17:46:48.479Z,2.8
2022-10-03T17:50:55.400Z,6
2022-10-03T17:52:57.295Z,6
2022-10-03T17:54:59.204Z,5.7
2022-10-03T17:57:01.090Z,5.4
2022-10-03T17:59:02.981Z,5.7
2022-10-03T18:01:04.951Z,7
2022-10-03T18:03:06.777Z,6.5
2022-10-03T18:05:11.839Z,6.1
2022-10-03T18:07:13.732Z,5.5
2022-10-03T18:09:15.621Z,5
2022-10-03T18:11:44.159Z,6.1
2022-10-03T18:13:46.044Z,3.7
2022-10-03T18:15:48.014Z,4.8
2022-10-03T18:17:52.994Z,4.6
2022-10-03T18:19:54.883Z,4.5
2022-10-03T18:21:56.778Z,4
2022-10-03T18:23:58.669Z,3.9
2022-10-03T18:26:18.789Z,3.1
2022-10-03T18:28:04.934Z,4.1
2022-10-03T18:30:04.386Z,2.5
2022-10-03T18:32:09.423Z,4.1
2022-10-03T18:34:13.926Z,2.5
2022-10-03T18:36:13.200Z,3.2
2022-10-03T18:38:15.097Z,3.1
2022-10-03T18:40:17.025Z,3.2
2022-10-03T18:42:18.920Z,3.5
2022-10-03T18:44:20.814Z,3.8
2022-10-03T18:46:25.996Z,4.7
2022-10-03T18:48:27.773Z,7.8
2022-10-03T18:50:29.690Z,6.4
2022-10-03T18:52:31.583Z,7.8
2022-10-03T18:54:33.491Z,6.9
2022-10-03T18:56:35.481Z,4.8
2022-10-03T18:58:37.341Z,6.3
2022-10-03T19:00:42.920Z,5
2022-10-03T19:02:44.278Z,4.2
2022-10-03T19:04:46.168Z,4.1
2022-10-03T19:05:48.722Z,3.1
2022-10-03T19:07:50.611Z,3.9
2022-10-03T19:09:52.501Z,3.8
2022-10-03T19:11:54.421Z,3.1
2022-10-03T19:13:59.481Z,3.8
2022-10-03T19:16:01.452Z,3.7
2022-10-03T19:18:03.291Z,3.1
2022-10-03T19:20:05.188Z,4.7
2022-10-03T19:22:07.095Z,3.9
2022-10-03T19:24:09.014Z,4.4
2022-10-03T19:26:10.927Z,5
2022-10-03T19:28:16.042Z,6.3
2022-10-03T19:30:17.901Z,4.2
2022-10-03T19:32:19.809Z,10.6
2022-10-03T19:34:21.706Z,10.7
2022-10-03T19:36:23.633Z,12.1
2022-10-03T19:38:25.576Z,9.9
2022-10-03T19:40:27.507Z,11.3
2022-10-03T19:42:32.530Z,9.7
2022-10-03T19:46:36.436Z,7.2
2022-10-03T19:50:40.333Z,7.5
2022-10-03T19:56:49.092Z,7.2
2022-10-03T19:58:50.997Z,7.6
2022-10-03T20:00:53.013Z,8.2
2022-10-03T20:01:55.527Z,7.9
2022-10-03T20:20:15.839Z,5.5
2022-10-03T20:22:17.772Z,5
2022-10-03T20:28:26.719Z,5.4
2022-10-03T20:30:28.573Z,5.3
2022-10-03T20:32:30.473Z,5
2022-10-03T20:34:32.384Z,4.7
2022-10-03T20:36:34.308Z,5.6
2022-10-03T20:38:39.362Z,5
2022-10-03T20:40:41.271Z,3.5
2022-10-03T20:46:47.052Z,3.7
2022-10-03T20:52:55.951Z,2.6
2022-10-03T20:58:02.351Z,3.6
2022-10-03T21:00:04.269Z,2.7
2022-10-03T21:02:06.261Z,3.4
2022-10-03T21:04:08.115Z,3.2
2022-10-03T21:06:15.021Z,4.2
2022-10-03T21:08:15.107Z,5.1
2022-10-03T21:10:17.024Z,4.6
2022-10-03T21:12:18.943Z,4.9
2022-10-03T21:14:20.845Z,5.6
2022-10-03T21:16:22.801Z,5.3
2022-10-03T21:18:24.676Z,4.7
2022-10-03T21:20:29.742Z,4
2022-10-03T21:22:31.673Z,6
2022-10-03T21:24:33.610Z,6.6
2022-10-03T21:26:35.568Z,7.2
2022-10-03T21:28:37.510Z,7.9
2022-10-03T21:30:39.374Z,6.1
2022-10-03T21:32:41.302Z,6.5
2022-10-03T21:34:46.359Z,6.7
2022-10-03T21:36:48.273Z,6.9
2022-10-03T21:38:50.188Z,6
2022-10-03T21:40:52.123Z,6.2
2022-10-03T21:42:54.029Z,5.3
2022-10-03T21:44:56.032Z,4.5
2022-10-03T21:46:57.964Z,5.5
2022-10-03T21:53:06.917Z,5.5
2022-10-03T21:55:51.667Z,5.4
2022-10-03T21:57:37.493Z,5.2
2022-10-03T21:59:39.401Z,4.2
2022-10-03T22:01:44.526Z,4.8
2022-10-03T22:03:46.390Z,3.9
2022-10-03T22:05:48.317Z,4.7
2022-10-03T22:07:50.262Z,4.8
2022-10-03T22:09:52.154Z,5.2
2022-10-03T22:11:54.077Z,6.3
2022-10-03T22:13:56.000Z,5.4
2022-10-03T22:16:02.643Z,5.6
2022-10-03T22:18:04.471Z,5.3
2022-10-03T22:22:08.323Z,4.7
2022-10-03T22:24:10.232Z,5
2022-10-03T22:26:12.147Z,4.7
2022-10-03T22:28:14.124Z,4.6
2022-10-03T22:30:19.127Z,4.4
2022-10-03T22:32:21.048Z,4.6
2022-10-03T22:34:22.963Z,4
2022-10-03T22:36:24.904Z,3.2
2022-10-03T22:38:26.825Z,2.8
2022-10-03T22:40:28.736Z,4
2022-10-03T22:42:30.685Z,3.2
2022-10-03T22:44:35.726Z,4
2022-10-03T22:46:37.757Z,3.2
2022-10-03T22:48:39.566Z,3.7
2022-10-03T22:49:42.126Z,3.2
2022-10-03T22:51:44.042Z,2.5
2022-10-03T22:53:45.960Z,2.6
2022-10-03T22:55:47.875Z,2.7
2022-10-03T22:57:52.940Z,2.5
2022-10-03T22:59:54.869Z,2.3
2022-10-03T23:01:56.830Z,2.5
2022-10-03T23:06:00.703Z,2.6
2022-10-03T23:08:02.603Z,2.4
2022-10-03T23:10:04.536Z,2.5
2022-10-03T23:12:09.593Z,2.7
2022-10-03T23:14:11.531Z,3
2022-10-03T23:16:13.503Z,2.9
2022-10-03T23:18:15.379Z,2.6
2022-10-03T23:20:17.296Z,2.3
2022-10-03T23:22:19.194Z,2.8
2022-10-03T23:24:21.134Z,2.3
2022-10-03T23:26:26.208Z,2.9
2022-10-03T23:28:28.183Z,3
2022-10-03T23:30:30.048Z,3
2022-10-03T23:32:31.984Z,2.8
2022-10-03T23:34:33.902Z,3.3
2022-10-03T23:36:35.822Z,2.5
2022-10-03T23:38:37.733Z,2.9
2022-10-03T23:40:42.826Z,2.8
2022-10-03T23:42:44.739Z,3
2022-10-03T23:44:49.308Z,2.7
2022-10-03T23:45:49.176Z,2.4
2022-10-03T23:47:51.107Z,3.7
2022-10-03T23:49:53.033Z,3.1
2022-10-03T23:51:54.943Z,3.9
2022-10-03T23:53:59.983Z,2.5
2022-10-03T23:56:02.066Z,2
2022-10-03T23:58:03.850Z,2.3
